createdAt,value
2023-05-09T00:00:06.907Z,1.10
2023-05-09T00:05:10.177Z,1.27
2023-05-09T00:10:14.629Z,1.15
2023-05-09T00:15:17.476Z,1.40
2023-05-09T00:20:20.805Z,1.27
2023-05-09T00:25:25.308Z,1.10
2023-05-09T00:30:28.178Z,1.23
2023-05-09T00:35:32.301Z,1.30
2023-05-09T00:40:36.559Z,0.90
2023-05-09T00:45:39.530Z,1.10
2023-05-09T00:50:42.592Z,1.20
2023-05-09T00:55:47.143Z,1.33
2023-05-09T01:00:49.995Z,1.20
2023-05-09T01:05:59.469Z,1.50
2023-05-09T01:11:10.592Z,1.30
2023-05-09T01:16:22.142Z,1.40
2023-05-09T01:21:29.420Z,1.40
2023-05-09T01:26:45.462Z,1.33
2023-05-09T01:31:50.856Z,1.35
2023-05-09T01:36:57.429Z,1.60
2023-05-09T01:42:04.172Z,1.45
2023-05-09T01:47:09.376Z,1.85
2023-05-09T01:52:17.696Z,1.42
2023-05-09T01:57:21.151Z,1.80
2023-05-09T02:02:26.959Z,1.70
2023-05-09T02:07:30.759Z,1.63
2023-05-09T02:12:35.057Z,1.60
2023-05-09T02:17:39.292Z,1.70
2023-05-09T02:22:44.047Z,1.85
2023-05-09T02:27:47.894Z,1.83
2023-05-09T02:32:56.164Z,1.85
2023-05-09T02:38:00.735Z,2.38
2023-05-09T02:43:04.105Z,1.83
2023-05-09T02:48:09.518Z,1.85
2023-05-09T02:53:12.508Z,2.20
2023-05-09T02:58:15.372Z,1.90
2023-05-09T03:03:19.831Z,1.73
2023-05-09T03:08:22.772Z,1.90
2023-05-09T03:13:25.916Z,1.80
2023-05-09T03:18:30.185Z,1.67
2023-05-09T03:23:33.163Z,2.05
2023-05-09T03:28:36.071Z,1.90
2023-05-09T03:33:40.274Z,1.95
2023-05-09T03:38:43.176Z,1.90
2023-05-09T03:43:46.253Z,2.00
2023-05-09T03:48:50.474Z,2.20
2023-05-09T03:53:53.381Z,2.05
2023-05-09T03:58:56.282Z,2.22
2023-05-09T04:04:00.589Z,1.80
2023-05-09T04:09:03.596Z,2.00
2023-05-09T04:14:07.347Z,2.13
2023-05-09T04:19:11.653Z,2.13
2023-05-09T04:24:14.565Z,2.20
2023-05-09T04:29:17.542Z,2.20
2023-05-09T04:34:21.977Z,2.38
2023-05-09T04:39:24.909Z,2.05
2023-05-09T04:44:27.755Z,1.73
2023-05-09T04:49:32.221Z,2.10
2023-05-09T04:54:35.141Z,2.00
2023-05-09T04:59:38.013Z,1.92
2023-05-09T05:04:42.362Z,2.50
2023-05-09T05:09:45.393Z,1.98
2023-05-09T05:14:48.414Z,2.20
2023-05-09T05:19:52.626Z,2.00
2023-05-09T05:24:55.539Z,2.40
2023-05-09T05:29:58.518Z,2.17
2023-05-09T05:35:04.876Z,2.53
2023-05-09T05:40:09.803Z,2.42
2023-05-09T05:45:13.338Z,2.38
2023-05-09T05:50:17.715Z,2.55
2023-05-09T05:55:20.771Z,2.25
2023-05-09T06:00:23.835Z,1.95
2023-05-09T06:05:28.118Z,2.08
2023-05-09T06:10:30.992Z,2.30
2023-05-09T06:15:33.947Z,1.92
2023-05-09T06:20:38.160Z,2.45
2023-05-09T06:25:41.156Z,2.17
2023-05-09T06:30:44.006Z,2.13
2023-05-09T06:35:48.321Z,2.20
2023-05-09T06:40:51.367Z,2.30
2023-05-09T06:45:54.323Z,2.08
2023-05-09T06:50:58.549Z,2.20
2023-05-09T06:56:01.511Z,2.10
2023-05-09T07:01:04.921Z,2.10
2023-05-09T07:06:09.418Z,2.10
2023-05-09T07:11:12.315Z,1.90
2023-05-09T07:16:15.938Z,2.20
2023-05-09T07:21:20.232Z,2.00
2023-05-09T07:26:23.384Z,2.10
2023-05-09T07:31:26.404Z,2.10
2023-05-09T07:36:30.613Z,1.83
2023-05-09T07:41:33.533Z,1.88
2023-05-09T07:46:37.581Z,2.25
2023-05-09T07:51:41.861Z,2.00
2023-05-09T07:56:44.809Z,1.90
2023-05-09T08:01:47.746Z,1.92
2023-05-09T08:06:51.954Z,1.98
2023-05-09T08:11:54.914Z,1.95
2023-05-09T08:16:57.809Z,1.92
2023-05-09T08:22:02.085Z,1.80
2023-05-09T08:27:05.106Z,1.95
2023-05-09T08:32:08.545Z,2.03
2023-05-09T08:37:15.083Z,1.77
2023-05-09T08:42:25.477Z,1.90
2023-05-09T08:47:29.772Z,1.90
2023-05-09T08:52:34.825Z,1.98
2023-05-09T08:57:38.174Z,2.00
2023-05-09T09:02:42.956Z,2.30
2023-05-09T09:07:47.937Z,2.00
2023-05-09T09:12:52.263Z,1.83
2023-05-09T09:17:57.530Z,1.92
2023-05-09T09:23:05.612Z,1.70
2023-05-09T09:28:08.538Z,2.00
2023-05-09T09:33:20.281Z,1.90
2023-05-09T09:38:25.710Z,2.00
2023-05-09T09:43:29.601Z,1.67
2023-05-09T09:48:33.853Z,1.90
2023-05-09T09:53:41.773Z,1.73
2023-05-09T09:58:44.674Z,1.77
2023-05-09T10:03:48.028Z,2.00
2023-05-09T10:08:52.490Z,1.50
2023-05-09T10:13:55.481Z,1.70
2023-05-09T10:18:58.488Z,1.60
2023-05-09T10:24:04.362Z,1.80
2023-05-09T10:29:11.849Z,1.70
2023-05-09T10:34:16.514Z,2.03
2023-05-09T10:39:21.051Z,1.92
2023-05-09T10:44:25.368Z,1.70
2023-05-09T10:49:28.763Z,1.70
2023-05-09T10:54:33.685Z,1.50
2023-05-09T10:59:39.262Z,1.40
2023-05-09T11:04:42.333Z,1.90
2023-05-09T11:09:46.573Z,1.73
2023-05-09T11:14:51.756Z,1.55
2023-05-09T11:20:05.490Z,1.50
2023-05-09T11:25:11.638Z,1.70
2023-05-09T11:30:17.040Z,1.70
2023-05-09T11:35:21.826Z,1.42
2023-05-09T11:40:26.245Z,1.55
2023-05-09T11:45:31.027Z,1.50
2023-05-09T11:50:34.142Z,1.38
2023-05-09T11:55:39.250Z,1.55
2023-05-09T12:00:45.973Z,1.60
2023-05-09T12:05:49.520Z,1.63
2023-05-09T12:10:53.828Z,1.60
2023-05-09T12:16:01.727Z,1.75
2023-05-09T12:21:07.182Z,1.60
2023-05-09T12:26:12.420Z,1.58
2023-05-09T12:31:15.613Z,1.50
2023-05-09T12:36:18.786Z,1.45
2023-05-09T12:41:36.895Z,1.67
2023-05-09T12:46:54.612Z,1.60
2023-05-09T12:52:01.119Z,1.70
2023-05-09T12:57:06.888Z,1.60
2023-05-09T13:02:09.935Z,1.50
2023-05-09T13:07:13.166Z,1.50
2023-05-09T13:12:20.619Z,1.40
2023-05-09T13:17:23.581Z,1.40
2023-05-09T13:22:26.764Z,1.45
2023-05-09T13:27:31.270Z,1.67
2023-05-09T13:32:34.163Z,1.50
2023-05-09T13:37:37.163Z,1.52
2023-05-09T13:42:41.534Z,1.38
2023-05-09T13:47:44.481Z,1.98
2023-05-09T13:52:47.421Z,1.50
2023-05-09T13:57:51.629Z,1.60
2023-05-09T14:02:54.743Z,1.50
2023-05-09T14:07:57.636Z,1.42
2023-05-09T14:13:02.075Z,1.48
2023-05-09T14:18:05.337Z,1.33
2023-05-09T14:23:08.298Z,1.48
2023-05-09T14:28:12.886Z,1.33
2023-05-09T14:33:15.856Z,1.60
2023-05-09T14:38:18.799Z,1.55
2023-05-09T14:43:24.317Z,1.58
2023-05-09T14:48:27.349Z,1.48
2023-05-09T14:53:31.248Z,1.60
2023-05-09T14:58:35.789Z,1.30
2023-05-09T15:03:39.364Z,1.25
2023-05-09T15:08:42.352Z,1.35
2023-05-09T15:13:46.623Z,1.30
2023-05-09T15:18:49.597Z,1.25
2023-05-09T15:23:52.497Z,1.38
2023-05-09T15:28:56.771Z,1.63
2023-05-09T15:33:59.754Z,1.38
2023-05-09T15:39:05.363Z,1.38
2023-05-09T15:44:09.640Z,1.33
2023-05-09T15:49:12.869Z,1.30
2023-05-09T15:54:15.831Z,1.20
2023-05-09T15:59:20.145Z,1.20
2023-05-09T16:04:24.365Z,1.20
2023-05-09T16:09:27.272Z,1.20
2023-05-09T16:14:31.636Z,1.30
2023-05-09T16:19:36.146Z,1.65
2023-05-09T16:24:39.261Z,1.30
2023-05-09T16:29:44.167Z,1.40
2023-05-09T16:34:47.676Z,1.25
2023-05-09T16:39:50.897Z,1.33
2023-05-09T16:44:55.860Z,1.60
2023-05-09T16:49:58.740Z,1.30
2023-05-09T16:55:01.618Z,1.10
2023-05-09T17:00:07.834Z,1.40
2023-05-09T17:05:11.120Z,1.08
2023-05-09T17:10:14.237Z,1.20
2023-05-09T17:15:18.784Z,1.27
2023-05-09T17:20:21.820Z,1.30
2023-05-09T17:25:24.727Z,1.30
2023-05-09T17:30:29.226Z,1.20
2023-05-09T17:35:32.169Z,1.40
2023-05-09T17:40:35.079Z,1.38
2023-05-09T17:45:39.316Z,1.17
2023-05-09T17:50:43.536Z,1.33
2023-05-09T17:55:46.415Z,1.20
2023-05-09T18:00:53.790Z,1.23
2023-05-09T18:05:57.205Z,1.10
2023-05-09T18:11:00.169Z,1.23
2023-05-09T18:16:04.644Z,1.20
2023-05-09T18:21:09.539Z,1.38
2023-05-09T18:26:12.462Z,1.10
2023-05-09T18:31:18.044Z,1.10
2023-05-09T18:36:20.975Z,1.42
2023-05-09T18:41:24.172Z,1.20
2023-05-09T18:46:29.974Z,1.15
2023-05-09T18:51:34.026Z,1.08
2023-05-09T18:56:39.396Z,1.10
2023-05-09T19:01:44.028Z,1.35
2023-05-09T19:06:47.264Z,1.30
2023-05-09T19:11:50.182Z,1.27
2023-05-09T19:16:54.507Z,1.25
2023-05-09T19:21:57.443Z,0.98
2023-05-09T19:27:00.484Z,1.17
2023-05-09T19:32:05.715Z,0.95
2023-05-09T19:37:08.627Z,1.50
2023-05-09T19:42:11.535Z,1.13
2023-05-09T19:47:15.822Z,0.88
2023-05-09T19:52:19.269Z,1.30
2023-05-09T19:57:22.789Z,1.20
2023-05-09T20:02:27.160Z,0.98
2023-05-09T20:07:30.393Z,0.98
2023-05-09T20:12:33.271Z,1.20
2023-05-09T20:17:37.579Z,1.00
2023-05-09T20:22:40.923Z,1.00
2023-05-09T20:27:43.754Z,1.00
2023-05-09T20:32:48.123Z,1.00
2023-05-09T20:37:51.057Z,0.93
2023-05-09T20:42:53.976Z,1.10
2023-05-09T20:47:59.076Z,1.00
2023-05-09T20:53:02.044Z,0.93
2023-05-09T20:58:04.909Z,1.10
2023-05-09T21:03:10.265Z,1.10
2023-05-09T21:08:13.520Z,1.00
2023-05-09T21:13:16.498Z,1.20
2023-05-09T21:18:21.684Z,1.00
2023-05-09T21:23:24.549Z,1.10
2023-05-09T21:28:27.996Z,1.00
2023-05-09T21:33:32.200Z,1.20
2023-05-09T21:38:35.098Z,1.00
2023-05-09T21:43:38.595Z,0.93
2023-05-09T21:48:42.776Z,1.00
2023-05-09T21:53:46.469Z,1.10
2023-05-09T21:58:49.377Z,0.90
2023-05-09T22:03:53.759Z,0.80
2023-05-09T22:08:56.796Z,0.90
2023-05-09T22:13:59.652Z,1.00
2023-05-09T22:19:03.912Z,1.00
2023-05-09T22:24:07.672Z,0.80
2023-05-09T22:29:10.569Z,1.13
2023-05-09T22:34:14.866Z,0.90
2023-05-09T22:39:17.768Z,0.90
2023-05-09T22:44:20.621Z,0.95
2023-05-09T22:49:24.876Z,0.88
2023-05-09T22:54:27.741Z,1.00
2023-05-09T22:59:30.663Z,0.90
2023-05-09T23:04:34.933Z,0.82
2023-05-09T23:09:38.404Z,0.90
2023-05-09T23:14:41.495Z,0.80
2023-05-09T23:19:46.186Z,0.70
2023-05-09T23:24:49.090Z,0.80
2023-05-09T23:29:51.997Z,0.80
2023-05-09T23:34:56.464Z,0.80
2023-05-09T23:39:59.472Z,0.75
2023-05-09T23:45:02.402Z,0.73
2023-05-09T23:50:08.255Z,0.80
2023-05-09T23:55:11.577Z,0.70
